Time;durP1;ratioP1;P1;durP2;ratioP2;P2;SDS_P1;SDS_P2;PMS_P1;PMS_P2;Temp;Humidity;BMP_temperature;BMP_pressure;BME280_temperature;BME280_humidity;BME280_pressure;Samples;Min_cycle;Max_cycle;Signal;HPM_P1;HPM_P2
2022/05/16 00:00:31;;;;;;;6.85;3.70;;;22.90;54.30;;;;;;7690127;23;20151;-69
2022/05/16 00:03:32;;;;;;;9.02;3.58;;;22.80;54.20;;;;;;7715744;23;20052;-69
2022/05/16 00:06:33;;;;;;;7.07;3.30;;;22.80;54.10;;;;;;7689637;23;20031;-69
2022/05/16 00:09:35;;;;;;;7.13;3.25;;;22.80;54.00;;;;;;7716237;23;20028;-70
2022/05/16 00:12:37;;;;;;;5.78;3.60;;;22.80;54.00;;;;;;7665497;23;20008;-69
2022/05/16 00:15:38;;;;;;;10.60;3.20;;;22.80;54.10;;;;;;7716391;23;20012;-69
2022/05/16 00:18:39;;;;;;;9.65;3.67;;;22.80;54.20;;;;;;7715592;23;20503;-69
2022/05/16 00:21:40;;;;;;;11.05;3.88;;;22.80;54.40;;;;;;7665082;23;20009;-69
2022/05/16 00:24:57;;;;;;;11.20;3.70;;;22.70;54.50;;;;;;7715628;23;20301;-70
2022/05/16 00:27:58;;;;;;;12.27;3.80;;;22.60;55.00;;;;;;7715949;23;20672;-69
2022/05/16 00:30:59;;;;;;;5.93;3.38;;;22.50;55.10;;;;;;7689612;23;20027;-69
2022/05/16 00:34:00;;;;;;;6.95;3.72;;;22.50;55.30;;;;;;7688429;23;20063;-69
2022/05/16 00:37:02;;;;;;;11.77;4.13;;;22.50;55.30;;;;;;7689623;23;20028;-69
2022/05/16 00:40:06;;;;;;;10.00;3.17;;;22.50;55.40;;;;;;7688413;23;20071;-69
2022/05/16 00:43:11;;;;;;;5.57;3.65;;;22.50;55.40;;;;;;7715599;23;20067;-69
2022/05/16 00:46:15;;;;;;;17.52;4.57;;;22.50;55.40;;;;;;7664622;23;20017;-69
2022/05/16 00:49:27;;;;;;;8.70;3.50;;;22.50;55.40;;;;;;7689080;23;20094;-71
2022/05/16 00:52:33;;;;;;;7.10;3.65;;;22.50;55.30;;;;;;7664499;23;20017;-69
2022/05/16 00:55:37;;;;;;;12.38;3.50;;;22.60;55.80;;;;;;7689773;23;20032;-69
2022/05/16 00:58:41;;;;;;;10.02;3.85;;;22.60;55.00;;;;;;7689716;23;20013;-69
2022/05/16 01:05:03;;;;;;;8.75;3.75;;;22.80;54.70;;;;;;7713306;23;20096;-69
2022/05/16 01:08:12;;;;;;;8.02;3.83;;;22.80;54.50;;;;;;7687483;23;20024;-69
2022/05/16 01:11:14;;;;;;;4.32;2.85;;;22.80;54.40;;;;;;7662943;23;20419;-68
2022/05/16 01:14:53;;;;;;;6.50;3.40;;;22.90;54.20;;;;;;7714133;23;20020;-69
2022/05/16 01:17:55;;;;;;;9.50;3.63;;;22.90;53.80;;;;;;7712619;23;20028;-69
2022/05/16 01:21:12;;;;;;;6.68;3.42;;;22.90;53.50;;;;;;7686126;23;20016;-68
2022/05/16 01:24:18;;;;;;;10.45;3.40;;;23.00;53.40;;;;;;7712817;23;20320;-68
2022/05/16 01:27:19;;;;;;;6.68;3.40;;;23.00;53.20;;;;;;7687143;23;20016;-69
2022/05/16 01:30:24;;;;;;;13.68;3.65;;;23.00;53.00;;;;;;7687388;23;20099;-69
2022/05/16 01:33:25;;;;;;;3.17;2.60;;;23.00;53.00;;;;;;7712828;23;20451;-68
2022/05/16 01:36:26;;;;;;;4.68;2.95;;;23.00;52.90;;;;;;7713537;23;20463;-68
2022/05/16 01:39:27;;;;;;;15.13;3.40;;;22.90;52.80;;;;;;7713721;23;20036;-68
2022/05/16 01:42:29;;;;;;;5.72;3.30;;;22.90;52.80;;;;;;7687300;23;20096;-69
2022/05/16 01:45:31;;;;;;;6.43;3.28;;;22.90;52.90;;;;;;7713212;23;20027;-69
2022/05/16 01:48:32;;;;;;;9.82;3.35;;;22.90;52.90;;;;;;7713165;23;20036;-69
2022/05/16 01:51:34;;;;;;;11.95;3.25;;;22.90;53.00;;;;;;7687342;23;20017;-69
2022/05/16 01:54:34;;;;;;;7.80;3.08;;;22.80;53.10;;;;;;7687369;23;20055;-69
2022/05/16 01:57:35;;;;;;;10.57;3.45;;;22.80;53.20;;;;;;7687077;23;20424;-69
2022/05/16 02:00:37;;;;;;;7.10;3.55;;;22.70;53.30;;;;;;7687532;23;20380;-69
2022/05/16 02:03:41;;;;;;;11.93;3.78;;;22.60;53.40;;;;;;7712828;23;20066;-69
2022/05/16 02:06:41;;;;;;;13.32;3.45;;;22.50;53.60;;;;;;7686202;23;20020;-69
2022/05/16 02:09:42;;;;;;;7.82;3.20;;;22.40;54.00;;;;;;7713262;23;20035;-69
2022/05/16 02:12:44;;;;;;;11.80;3.70;;;22.20;54.40;;;;;;7712656;23;20039;-69
2022/05/16 02:15:46;;;;;;;5.30;3.65;;;22.10;54.70;;;;;;7685409;23;20396;-69
2022/05/16 02:18:47;;;;;;;8.10;3.05;;;22.00;55.50;;;;;;7686883;23;20323;-69
2022/05/16 02:25:07;;;;;;;11.45;3.63;;;21.90;54.60;;;;;;7686432;23;20020;-69
2022/05/16 02:28:11;;;;;;;8.98;2.97;;;21.80;54.20;;;;;;7712545;23;20050;-69
2022/05/16 02:31:12;;;;;;;9.23;2.75;;;21.80;53.80;;;;;;7686765;23;20021;-69
2022/05/16 02:34:13;;;;;;;7.60;3.28;;;21.80;53.40;;;;;;7686673;23;20021;-69
2022/05/16 02:37:14;;;;;;;6.03;2.70;;;21.80;52.90;;;;;;7686698;23;20549;-69
2022/05/16 02:40:16;;;;;;;10.23;2.80;;;21.80;52.60;;;;;;7686050;23;20092;-69
2022/05/16 02:43:17;;;;;;;7.28;2.78;;;21.80;52.10;;;;;;7686332;23;20044;-69
2022/05/16 02:46:18;;;;;;;9.68;2.95;;;21.80;51.80;;;;;;7712421;23;20087;-69
2022/05/16 02:49:21;;;;;;;9.88;2.63;;;21.90;51.60;;;;;;7686686;23;20025;-69
2022/05/16 02:52:22;;;;;;;7.57;3.03;;;21.90;51.40;;;;;;7712763;23;20036;-69
2022/05/16 02:55:32;;;;;;;12.40;3.08;;;21.90;51.10;;;;;;7660922;23;20099;-69
2022/05/16 02:58:33;;;;;;;6.78;2.50;;;21.90;50.80;;;;;;7687563;23;20015;-69
2022/05/16 03:01:35;;;;;;;10.02;2.50;;;21.90;50.30;;;;;;7688255;23;20423;-69
2022/05/16 03:04:37;;;;;;;9.23;2.60;;;21.90;49.90;;;;;;7688069;23;20013;-69
2022/05/16 03:07:37;;;;;;;9.15;1.95;;;21.90;49.30;;;;;;7687976;23;20020;-71
2022/05/16 03:10:38;;;;;;;13.45;2.83;;;21.90;48.80;;;;;;7713179;23;20039;-69
2022/05/16 03:13:39;;;;;;;14.52;2.42;;;21.90;48.20;;;;;;7688146;23;20013;-69
2022/05/16 03:16:40;;;;;;;6.20;2.05;;;21.90;48.10;;;;;;7661255;23;20024;-69
2022/05/16 03:19:42;;;;;;;8.80;2.42;;;21.90;48.10;;;;;;7687632;23;20028;-69
2022/05/16 03:22:43;;;;;;;10.93;2.20;;;22.00;47.90;;;;;;7714079;23;20087;-69
2022/05/16 03:25:44;;;;;;;5.97;2.10;;;22.00;47.60;;;;;;7713265;23;20012;-69
2022/05/16 03:28:45;;;;;;;11.95;2.53;;;22.10;47.50;;;;;;7687577;23;20016;-69
2022/05/16 03:31:46;;;;;;;12.32;2.20;;;22.10;47.20;;;;;;7686205;23;20088;-69
2022/05/16 03:34:53;;;;;;;9.40;1.92;;;22.20;46.80;;;;;;7713510;23;20016;-69
2022/05/16 03:37:53;;;;;;;7.43;2.03;;;22.20;46.40;;;;;;7687679;23;20047;-69
2022/05/16 03:40:54;;;;;;;14.30;2.13;;;22.30;46.10;;;;;;7687245;23;20088;-69
2022/05/16 03:43:55;;;;;;;5.88;2.08;;;22.30;46.00;;;;;;7713690;23;20020;-69
2022/05/16 03:46:57;;;;;;;5.47;3.15;;;22.30;45.90;;;;;;7686719;23;20044;-69
2022/05/16 03:49:58;;;;;;;9.25;2.33;;;22.20;45.80;;;;;;7687816;23;20127;-69
2022/05/16 03:53:00;;;;;;;14.82;2.60;;;22.30;45.70;;;;;;7687445;23;20345;-69
2022/05/16 03:56:01;;;;;;;11.50;2.45;;;22.20;45.50;;;;;;7687354;23;20091;-69
2022/05/16 03:59:03;;;;;;;9.25;2.17;;;22.20;45.30;;;;;;7662524;23;20008;-69
2022/05/16 04:02:05;;;;;;;15.40;2.58;;;22.20;45.40;;;;;;7686704;23;20062;-69
2022/05/16 04:05:08;;;;;;;8.38;2.30;;;22.30;45.30;;;;;;7687264;23;20017;-69
2022/05/16 04:08:09;;;;;;;7.97;2.08;;;22.30;45.20;;;;;;7687252;23;20071;-69
2022/05/16 04:11:11;;;;;;;8.85;2.20;;;22.30;45.10;;;;;;7687150;23;20096;-69
2022/05/16 04:14:12;;;;;;;10.68;2.38;;;22.30;44.80;;;;;;7713461;23;20195;-68
2022/05/16 04:17:13;;;;;;;5.75;2.10;;;22.30;44.60;;;;;;7713283;23;20016;-69
2022/05/16 04:20:15;;;;;;;5.70;2.45;;;22.30;44.60;;;;;;7686701;23;20024;-69
2022/05/16 04:23:16;;;;;;;9.90;2.13;;;22.30;44.50;;;;;;7687233;23;20021;-70
2022/05/16 04:26:17;;;;;;;16.88;2.50;;;22.20;44.30;;;;;;7686114;23;20031;-67
2022/05/16 04:29:18;;;;;;;5.82;1.80;;;22.20;44.10;;;;;;7686445;23;20045;-69
2022/05/16 04:32:19;;;;;;;7.60;1.83;;;22.20;44.10;;;;;;7713181;23;20016;-69
2022/05/16 04:35:20;;;;;;;6.60;1.85;;;22.20;44.10;;;;;;7686997;23;20086;-69
2022/05/16 04:38:20;;;;;;;9.07;2.00;;;22.20;44.10;;;;;;7713673;23;20028;-69
2022/05/16 04:44:40;;;;;;;10.27;2.10;;;22.20;44.20;;;;;;7714599;23;20076;-69
2022/05/16 04:47:43;;;;;;;8.27;2.15;;;22.20;44.20;;;;;;7715697;23;20016;-69
2022/05/16 04:50:44;;;;;;;7.57;2.63;;;22.20;44.20;;;;;;7664485;23;20024;-70
2022/05/16 04:53:45;;;;;;;7.30;2.08;;;22.20;44.10;;;;;;7689285;23;20021;-69
2022/05/16 04:56:47;;;;;;;10.80;3.55;;;22.30;44.00;;;;;;7689318;23;20323;-68
2022/05/16 04:59:49;;;;;;;6.50;2.25;;;22.30;43.80;;;;;;7689175;23;20087;-69
2022/05/16 05:02:50;;;;;;;10.73;2.20;;;22.30;43.60;;;;;;7663926;23;20049;-68
2022/05/16 05:05:52;;;;;;;6.25;1.92;;;22.30;43.60;;;;;;7714489;23;20020;-69
2022/05/16 05:08:53;;;;;;;12.70;2.10;;;22.30;43.50;;;;;;7689212;23;20092;-69
2022/05/16 05:15:16;;;;;;;15.38;2.20;;;22.40;43.40;;;;;;7712931;23;20302;-69
2022/05/16 05:18:17;;;;;;;16.00;2.65;;;22.40;43.30;;;;;;7713345;23;20510;-72
2022/05/16 05:21:18;;;;;;;13.63;1.98;;;22.50;43.20;;;;;;7686611;23;20088;-71
2022/05/16 05:24:19;;;;;;;17.08;2.92;;;22.60;43.10;;;;;;7662689;23;20066;-70
2022/05/16 05:27:20;;;;;;;6.30;2.10;;;22.70;42.80;;;;;;7713486;23;20274;-69
2022/05/16 05:30:25;;;;;;;10.50;2.10;;;22.80;42.60;;;;;;7713238;23;20024;-69
2022/05/16 05:33:27;;;;;;;7.85;1.90;;;22.90;42.30;;;;;;7686756;23;20075;-68
2022/05/16 05:36:28;;;;;;;6.68;1.98;;;23.10;41.90;;;;;;7686329;23;20020;-69
2022/05/16 05:39:31;;;;;;;6.15;1.77;;;23.30;41.70;;;;;;7662440;23;20016;-69
2022/05/16 05:42:33;;;;;;;11.10;2.17;;;23.40;41.70;;;;;;7712565;23;20034;-69
2022/05/16 05:45:35;;;;;;;5.78;2.50;;;23.50;42.20;;;;;;7713594;23;20082;-69
2022/05/16 05:48:37;;;;;;;13.07;3.47;;;23.70;42.80;;;;;;7713254;23;20294;-69
2022/05/16 05:51:38;;;;;;;14.95;3.22;;;23.80;43.60;;;;;;7712880;23;20088;-69
2022/05/16 05:54:39;;;;;;;11.88;3.20;;;23.80;44.20;;;;;;7713434;23;20408;-69
2022/05/16 05:57:40;;;;;;;13.18;3.67;;;23.80;44.50;;;;;;7713172;23;20063;-68
2022/05/16 06:00:42;;;;;;;23.30;3.03;;;23.80;44.70;;;;;;7686867;23;20012;-69
2022/05/16 06:03:42;;;;;;;10.07;3.22;;;23.80;44.70;;;;;;7686476;23;20024;-69
2022/05/16 06:06:46;;;;;;;10.02;3.17;;;23.80;44.70;;;;;;7660019;23;20428;-69
2022/05/16 06:09:47;;;;;;;15.05;2.80;;;23.80;44.50;;;;;;7686696;23;20017;-69
2022/05/16 06:12:48;;;;;;;7.45;2.70;;;23.90;44.40;;;;;;7687012;23;20020;-69
2022/05/16 06:15:49;;;;;;;9.98;3.00;;;23.90;45.10;;;;;;7711387;23;20071;-69
2022/05/16 06:18:50;;;;;;;6.55;3.05;;;24.00;44.70;;;;;;7659719;23;20016;-70
2022/05/16 06:21:51;;;;;;;6.60;3.22;;;24.00;44.90;;;;;;7660888;23;20013;-70
2022/05/16 06:28:18;;;;;;;5.00;2.58;;;24.10;45.10;;;;;;7685457;23;20024;-69
2022/05/16 06:31:19;;;;;;;10.70;2.42;;;24.20;45.10;;;;;;7685712;23;20017;-68
2022/05/16 06:34:20;;;;;;;13.80;2.90;;;24.20;45.10;;;;;;7685358;23;20054;-69
2022/05/16 06:37:21;;;;;;;11.65;2.92;;;24.20;45.10;;;;;;7685975;23;20021;-70
2022/05/16 06:40:22;;;;;;;10.98;3.58;;;24.20;45.10;;;;;;7697501;23;20086;-69
2022/05/16 06:43:25;;;;;;;12.95;3.78;;;24.20;45.30;;;;;;7711553;23;20035;-69
2022/05/16 06:46:27;;;;;;;11.95;3.13;;;24.10;45.50;;;;;;7685697;23;20112;-69
2022/05/16 06:49:28;;;;;;;11.05;3.15;;;24.00;45.30;;;;;;7711822;23;20032;-70
2022/05/16 06:52:29;;;;;;;5.38;2.45;;;23.90;45.40;;;;;;7685544;23;20489;-69
2022/05/16 06:55:31;;;;;;;5.97;2.80;;;23.70;45.80;;;;;;7686246;23;20091;-68
2022/05/16 06:58:32;;;;;;;8.85;2.10;;;23.30;46.50;;;;;;7711929;23;20371;-68
2022/05/16 07:01:33;;;;;;;14.05;3.20;;;22.90;47.60;;;;;;7711777;23;20032;-70
2022/05/16 07:04:36;;;;;;;11.10;2.85;;;22.60;48.10;;;;;;7712004;23;20028;-69
2022/05/16 07:07:37;;;;;;;9.57;3.50;;;22.50;48.70;;;;;;7684775;23;20029;-69
2022/05/16 07:10:38;;;;;;;5.97;2.65;;;22.40;48.70;;;;;;7685681;23;20069;-69
2022/05/16 07:13:39;;;;;;;13.23;3.40;;;22.30;48.90;;;;;;7711764;23;20027;-69
2022/05/16 07:16:40;;;;;;;13.15;3.60;;;22.20;49.00;;;;;;7711846;23;20024;-68
2022/05/16 07:19:41;;;;;;;13.43;3.58;;;22.20;49.30;;;;;;7672251;23;20099;-69
2022/05/16 07:22:45;;;;;;;11.68;3.28;;;22.20;49.80;;;;;;7648670;23;20100;-69
2022/05/16 07:29:05;;;;;;;12.80;3.33;;;22.40;49.70;;;;;;7673346;23;20024;-69
2022/05/16 07:32:10;;;;;;;12.60;3.50;;;22.50;49.70;;;;;;7647945;23;20016;-69
2022/05/16 07:35:14;;;;;;;9.18;3.00;;;22.60;49.60;;;;;;7673205;23;20052;-69
2022/05/16 07:42:37;;;;;;;10.25;3.67;;;22.80;49.10;;;;;;7676797;23;20021;-69
2022/05/16 07:45:38;;;;;;;15.55;3.03;;;22.90;49.10;;;;;;7651424;23;20025;-69
2022/05/16 07:48:40;;;;;;;15.18;3.47;;;22.90;48.90;;;;;;7651342;23;20115;-70
2022/05/16 07:51:41;;;;;;;12.38;3.03;;;23.00;48.80;;;;;;7677359;23;20101;-69
2022/05/16 07:54:42;;;;;;;10.57;2.95;;;23.00;48.60;;;;;;7626518;23;20017;-68
2022/05/16 07:57:43;;;;;;;13.77;3.65;;;23.10;48.50;;;;;;7651579;23;20029;-69
2022/05/16 08:00:44;;;;;;;13.23;3.47;;;23.20;48.30;;;;;;7651625;23;20020;-70
2022/05/16 08:03:44;;;;;;;14.73;3.75;;;23.30;48.00;;;;;;7651237;23;20044;-69
2022/05/16 08:06:45;;;;;;;19.98;3.33;;;23.30;47.70;;;;;;7651879;23;20084;-68
2022/05/16 08:13:08;;;;;;;13.10;2.83;;;23.40;47.40;;;;;;7675807;23;20079;-69
2022/05/16 08:16:10;;;;;;;13.45;3.85;;;23.30;46.90;;;;;;7674045;23;20017;-71
2022/05/16 08:19:10;;;;;;;12.60;2.97;;;23.40;47.00;;;;;;7703456;23;20099;-69
2022/05/16 08:22:12;;;;;;;15.93;3.40;;;23.60;46.90;;;;;;7715789;23;20059;-69
2022/05/16 08:25:14;;;;;;;13.57;2.85;;;23.80;46.80;;;;;;7689327;23;20024;-69
2022/05/16 08:28:15;;;;;;;12.18;2.97;;;24.10;46.70;;;;;;7689635;23;20020;-70
2022/05/16 08:31:16;;;;;;;11.55;3.28;;;24.40;45.80;;;;;;7689334;23;20023;-69
2022/05/16 08:34:18;;;;;;;9.23;3.35;;;24.80;45.40;;;;;;7688534;23;20424;-70
2022/05/16 08:40:46;;;;;;;21.15;4.25;;;25.40;44.50;;;;;;7689179;23;20096;-70
2022/05/16 08:43:54;;;;;;;6.50;3.08;;;25.60;44.30;;;;;;7689401;23;20078;-69
2022/05/16 08:47:00;;;;;;;9.35;3.20;;;25.70;43.90;;;;;;7714317;23;20060;-70
2022/05/16 08:50:11;;;;;;;9.48;2.70;;;25.80;43.60;;;;;;7688399;23;20009;-69
2022/05/16 08:53:16;;;;;;;9.98;2.65;;;25.90;43.10;;;;;;7715036;23;20318;-70
2022/05/16 08:56:22;;;;;;;9.23;2.88;;;26.00;43.10;;;;;;7699214;23;20013;-70
2022/05/16 08:59:26;;;;;;;9.45;2.78;;;26.00;43.10;;;;;;7715206;23;20411;-70
2022/05/16 09:02:29;;;;;;;11.98;2.55;;;26.10;42.50;;;;;;7715098;23;20017;-72
2022/05/16 09:05:38;;;;;;;6.57;2.30;;;26.20;42.40;;;;;;7690663;23;20016;-70
2022/05/16 09:08:51;;;;;;;11.02;2.88;;;26.20;42.40;;;;;;7689575;23;20055;-70
2022/05/16 09:12:16;;;;;;;17.02;3.53;;;26.30;42.10;;;;;;7689369;23;20475;-70
2022/05/16 09:15:26;;;;;;;5.95;2.63;;;26.30;41.80;;;;;;7665382;23;20036;-69
2022/05/16 09:18:49;;;;;;;7.30;3.40;;;26.40;42.00;;;;;;7690075;23;20048;-69
2022/05/16 09:21:56;;;;;;;21.48;8.85;;;26.50;42.20;;;;;;7688050;23;20021;-69
2022/05/16 09:25:11;;;;;;;15.60;5.15;;;26.50;42.00;;;;;;7714191;23;20107;-70
2022/05/16 09:31:40;;;;;;;14.15;5.05;;;26.60;41.90;;;;;;7713982;23;20012;-71
2022/05/16 09:34:41;;;;;;;14.80;4.03;;;26.60;41.80;;;;;;7663402;23;20016;-69
2022/05/16 09:37:42;;;;;;;9.98;4.40;;;26.70;41.80;;;;;;7688179;23;20022;-69
2022/05/16 09:41:03;;;;;;;12.65;5.85;;;26.80;41.50;;;;;;7688270;23;20016;-69
2022/05/16 09:44:09;;;;;;;16.13;4.32;;;26.90;41.00;;;;;;7688447;23;20016;-69
2022/05/16 09:47:32;;;;;;;10.93;2.97;;;26.90;41.80;;;;;;7687518;23;20056;-70
2022/05/16 09:50:33;;;;;;;14.65;2.80;;;27.00;41.40;;;;;;7687244;23;20017;-70
2022/05/16 09:53:43;;;;;;;13.90;6.72;;;27.20;41.40;;;;;;7687995;23;20265;-69
2022/05/16 09:57:19;;;;;;;12.32;4.57;;;27.20;40.40;;;;;;7688565;23;20311;-69
2022/05/16 10:00:33;;;;;;;7.75;3.50;;;27.30;39.90;;;;;;7687486;23;20009;-69
2022/05/16 10:03:41;;;;;;;12.90;2.38;;;27.30;40.30;;;;;;7687713;23;20009;-70
2022/05/16 10:06:56;;;;;;;6.07;2.55;;;27.40;40.30;;;;;;7687399;23;20020;-70
2022/05/16 10:09:58;;;;;;;9.50;2.67;;;27.40;40.00;;;;;;7662887;23;20009;-70
2022/05/16 10:13:00;;;;;;;14.98;4.53;;;27.50;40.20;;;;;;7687997;23;20091;-70
2022/05/16 10:16:05;;;;;;;12.90;4.43;;;27.50;40.30;;;;;;7687982;23;20019;-70
2022/05/16 10:19:15;;;;;;;6.20;3.95;;;27.60;40.10;;;;;;7687654;23;20017;-71
2022/05/16 10:22:19;;;;;;;9.73;3.70;;;27.60;39.90;;;;;;7713867;23;20013;-70
2022/05/16 10:25:27;;;;;;;13.48;6.10;;;27.60;39.80;;;;;;7662317;23;20017;-71
2022/05/16 10:28:33;;;;;;;20.70;9.05;;;27.70;39.60;;;;;;7688639;23;20024;-69
2022/05/16 10:35:08;;;;;;;8.65;4.30;;;27.70;39.30;;;;;;7709744;23;20024;-70
2022/05/16 10:38:33;;;;;;;10.45;3.88;;;27.60;39.50;;;;;;7683637;23;20016;-70
2022/05/16 10:41:43;;;;;;;8.55;3.38;;;27.60;39.80;;;;;;7710192;23;20308;-69
2022/05/16 10:44:52;;;;;;;14.68;4.70;;;27.80;39.80;;;;;;7710602;23;20012;-69
2022/05/16 10:48:16;;;;;;;23.25;6.78;;;27.90;39.50;;;;;;7658666;23;20444;-69
2022/05/16 10:51:43;;;;;;;14.38;6.03;;;27.90;39.50;;;;;;7682292;23;20332;-71
2022/05/16 10:54:44;;;;;;;8.48;5.28;;;28.00;39.80;;;;;;7683824;23;20320;-70
2022/05/16 10:58:04;;;;;;;7.90;4.10;;;28.60;39.20;;;;;;7684677;23;20028;-70
2022/05/16 11:01:11;;;;;;;9.95;3.55;;;29.50;37.80;;;;;;7684100;23;20348;-70
2022/05/16 11:04:42;;;;;;;7.70;2.90;;;30.40;36.70;;;;;;7709906;23;20017;-71
2022/05/16 11:08:22;;;;;;;13.05;3.33;;;31.50;35.40;;;;;;7707884;23;20028;-70
2022/05/16 11:11:35;;;;;;;;;;;32.40;34.30;;;;;;7570968;23;20021;-70
2022/05/16 11:14:49;;;;;;;7.95;2.75;;;33.20;33.20;;;;;;7571587;23;19959;-71
2022/05/16 11:18:21;;;;;;;9.00;2.90;;;33.80;31.60;;;;;;7585775;23;20048;-71
2022/05/16 11:22:28;;;;;;;7.45;3.13;;;34.20;31.00;;;;;;7536410;23;20022;-70
2022/05/16 11:25:31;;;;;;;11.18;3.20;;;34.70;30.40;;;;;;7388057;24;20448;-71
2022/05/16 11:28:33;;;;;;;7.43;3.13;;;34.90;29.40;;;;;;7389089;24;20021;-70
2022/05/16 11:31:42;;;;;;;7.28;3.28;;;35.10;29.40;;;;;;7388967;24;20032;-70
2022/05/16 11:35:20;;;;;;;7.35;2.88;;;35.40;28.80;;;;;;7387478;24;20047;-70
2022/05/16 11:38:37;;;;;;;8.45;2.75;;;35.60;28.20;;;;;;7329626;24;20032;-71
2022/05/16 11:41:48;;;;;;;6.82;2.60;;;35.60;28.10;;;;;;7360467;24;20072;-70
2022/05/16 11:45:04;;;;;;;7.47;2.65;;;35.70;28.40;;;;;;7398711;24;20031;-71
2022/05/16 11:48:13;;;;;;;4.00;2.50;;;35.80;28.00;;;;;;7398023;24;20064;-71
2022/05/16 11:51:36;;;;;;;8.75;2.55;;;35.90;28.00;;;;;;7397463;24;20046;-70
2022/05/16 11:54:47;;;;;;;6.72;2.60;;;35.90;28.00;;;;;;7403280;23;20024;-69
2022/05/16 12:01:29;;;;;;;10.55;2.55;;;36.20;28.10;;;;;;7509261;23;20015;-70
2022/05/16 12:04:39;;;;;;;7.43;3.10;;;36.40;27.80;;;;;;7474486;23;20022;-69
2022/05/16 12:07:44;;;;;;;8.18;2.83;;;36.40;27.80;;;;;;7470615;23;20102;-70
2022/05/16 12:11:05;;;;;;;11.68;3.13;;;36.50;28.00;;;;;;7500863;23;20019;-73
2022/05/16 12:14:20;;;;;;;9.25;3.15;;;36.20;27.80;;;;;;7548406;23;20044;-69
2022/05/16 12:17:27;;;;;;;6.60;2.50;;;35.80;28.10;;;;;;7676144;23;20032;-71
2022/05/16 12:20:37;;;;;;;9.27;3.22;;;35.10;28.80;;;;;;7659807;23;20063;-70
2022/05/16 12:23:44;;;;;;;13.15;3.30;;;34.40;29.20;;;;;;7684337;23;20092;-70
2022/05/16 12:26:47;;;;;;;12.73;3.75;;;34.20;29.60;;;;;;7683404;23;20016;-71
2022/05/16 12:29:52;;;;;;;16.17;3.10;;;34.40;29.60;;;;;;7685367;23;20016;-74
2022/05/16 12:32:55;;;;;;;6.95;2.60;;;34.80;29.20;;;;;;7684969;23;20016;-70
2022/05/16 12:35:56;;;;;;;6.07;2.83;;;35.20;28.70;;;;;;7711068;23;20019;-70
2022/05/16 12:39:08;;;;;;;8.52;3.60;;;35.20;28.40;;;;;;7660611;23;20009;-70
2022/05/16 12:42:21;;;;;;;9.23;2.85;;;34.80;28.60;;;;;;7653178;23;20032;-69
2022/05/16 12:45:46;;;;;;;4.75;2.47;;;34.00;29.00;;;;;;7684688;23;20013;-70
2022/05/16 12:49:18;;;;;;;9.43;2.83;;;33.40;29.50;;;;;;7684657;23;20016;-70
2022/05/16 12:52:56;;;;;;;12.25;3.05;;;33.40;29.50;;;;;;7681438;23;20407;-70
2022/05/16 12:56:13;;;;;;;4.97;2.05;;;34.30;28.30;;;;;;7681702;23;20371;-70
2022/05/16 12:59:26;;;;;;;7.38;2.75;;;35.30;27.40;;;;;;7683315;23;20028;-70
2022/05/16 13:02:34;;;;;;;15.73;2.67;;;36.20;26.20;;;;;;7682624;23;20334;-69
2022/05/16 13:05:42;;;;;;;5.05;2.10;;;36.40;25.70;;;;;;7682553;23;20040;-70
2022/05/16 13:08:50;;;;;;;2.97;1.98;;;36.20;25.80;;;;;;7710523;23;20024;-70
2022/05/16 13:12:22;;;;;;;10.10;2.60;;;36.50;25.40;;;;;;7682786;23;20020;-70
2022/05/16 13:15:27;;;;;;;6.28;2.60;;;37.20;25.00;;;;;;7683645;23;20031;-70
2022/05/16 13:18:40;;;;;;;10.15;2.60;;;38.10;24.20;;;;;;7709767;23;20043;-71
2022/05/16 13:21:53;;;;;;;12.70;2.90;;;39.10;23.30;;;;;;7684079;23;20092;-70
2022/05/16 13:24:55;;;;;;;8.68;2.30;;;40.10;22.60;;;;;;7709986;23;20099;-71
2022/05/16 13:31:33;;;;;;;7.32;2.50;;;41.50;21.10;;;;;;7711634;23;20096;-70
2022/05/16 13:34:43;;;;;;;13.43;2.60;;;41.90;20.90;;;;;;7710827;23;20020;-69
2022/05/16 13:37:49;;;;;;;10.32;2.58;;;42.40;20.20;;;;;;7685633;23;20088;-71
2022/05/16 13:40:50;;;;;;;10.82;2.40;;;42.70;20.10;;;;;;7711829;23;20087;-71
2022/05/16 13:43:52;;;;;;;12.05;3.00;;;43.20;19.80;;;;;;7711765;23;20356;-71
2022/05/16 13:46:53;;;;;;;15.35;2.53;;;43.60;19.50;;;;;;7670698;23;20012;-70
2022/05/16 13:49:55;;;;;;;10.30;2.72;;;43.90;19.10;;;;;;7710730;23;20024;-70
2022/05/16 13:52:57;;;;;;;26.40;3.50;;;43.70;19.00;;;;;;7685188;23;20021;-71
2022/05/16 13:55:58;;;;;;;8.43;2.45;;;43.70;18.90;;;;;;7685426;23;20356;-70
2022/05/16 13:59:00;;;;;;;7.00;2.17;;;43.80;18.90;;;;;;7685080;23;20008;-70
2022/05/16 14:02:09;;;;;;;7.80;2.17;;;44.20;18.80;;;;;;7684891;23;20070;-70
2022/05/16 14:05:32;;;;;;;8.80;2.45;;;44.50;18.30;;;;;;7685288;23;20348;-70
2022/05/16 14:08:45;;;;;;;7.93;2.20;;;44.80;18.40;;;;;;7684984;23;20096;-70
2022/05/16 14:11:47;;;;;;;12.15;2.67;;;44.90;18.20;;;;;;7682442;23;20323;-70
2022/05/16 14:14:50;;;;;;;10.82;2.95;;;45.10;18.10;;;;;;7684659;23;20427;-70
2022/05/16 14:18:11;;;;;;;7.43;2.45;;;45.10;17.90;;;;;;7710285;23;20028;-70
2022/05/16 14:21:23;;;;;;;5.72;2.60;;;45.00;17.90;;;;;;7709476;23;20009;-70
2022/05/16 14:24:33;;;;;;;6.40;2.22;;;45.00;18.20;;;;;;7710815;23;20017;-70
2022/05/16 14:27:56;;;;;;;12.13;3.05;;;45.00;18.20;;;;;;7659087;23;20375;-70
2022/05/16 14:31:01;;;;;;;7.90;3.00;;;45.10;18.00;;;;;;7710010;23;20017;-70
2022/05/16 14:34:44;;;;;;;8.75;3.42;;;44.90;18.10;;;;;;7710459;23;20009;-71
2022/05/16 14:37:50;;;;;;;8.75;2.40;;;43.70;18.60;;;;;;7675161;23;20012;-70
2022/05/16 14:41:01;;;;;;;7.05;2.60;;;42.90;19.30;;;;;;7682033;23;20400;-70
2022/05/16 14:44:18;;;;;;;7.82;2.50;;;42.90;19.30;;;;;;7659244;23;20091;-70
2022/05/16 14:47:23;;;;;;;4.88;2.25;;;43.10;19.10;;;;;;7684480;23;20031;-69
2022/05/16 14:50:29;;;;;;;12.70;2.75;;;43.40;18.90;;;;;;7710630;23;22343;-71
2022/05/16 14:53:30;;;;;;;7.32;2.30;;;43.10;18.90;;;;;;7658934;23;20016;-70
2022/05/16 14:56:36;;;;;;;33.78;14.60;;;41.90;19.80;;;;;;7684240;23;20009;-70
2022/05/16 14:59:37;;;;;;;9.70;2.77;;;40.20;20.80;;;;;;7712593;23;20020;-70
2022/05/16 15:05:58;;;;;;;9.48;2.45;;;37.90;22.80;;;;;;7710636;23;20005;-71
2022/05/16 15:09:02;;;;;;;8.40;3.15;;;37.20;23.60;;;;;;7685087;23;20085;-70
2022/05/16 15:12:08;;;;;;;10.45;3.38;;;36.70;24.00;;;;;;7685830;23;20017;-70
2022/05/16 15:15:09;;;;;;;7.25;3.25;;;36.30;24.40;;;;;;7711755;23;20411;-70
2022/05/16 15:18:10;;;;;;;6.18;2.72;;;36.00;24.80;;;;;;7684939;23;20020;-69
2022/05/16 15:21:12;;;;;;;10.13;2.83;;;36.80;24.30;;;;;;7711060;23;20064;-69
2022/05/16 15:24:21;;;;;;;5.53;2.50;;;38.00;23.40;;;;;;7684379;23;20024;-70
2022/05/16 15:27:26;;;;;;;5.65;2.55;;;39.00;22.50;;;;;;7710200;23;20066;-69
2022/05/16 15:30:27;;;;;;;11.50;2.20;;;39.70;21.90;;;;;;7711051;23;20016;-69
2022/05/16 15:33:28;;;;;;;7.35;2.13;;;40.20;21.50;;;;;;7710769;23;20028;-69
2022/05/16 15:36:31;;;;;;;6.35;2.72;;;40.80;21.00;;;;;;7685115;23;20023;-70
2022/05/16 15:39:34;;;;;;;5.72;2.20;;;41.30;20.70;;;;;;7684651;23;20012;-70
2022/05/16 15:42:35;;;;;;;7.88;2.50;;;41.80;20.30;;;;;;7711429;23;20035;-70
2022/05/16 15:45:38;;;;;;;7.05;2.80;;;42.20;20.00;;;;;;7660348;23;20016;-70
2022/05/16 15:48:42;;;;;;;5.68;2.22;;;42.40;19.80;;;;;;7711216;23;20016;-70
2022/05/16 15:51:44;;;;;;;6.72;2.50;;;42.60;19.60;;;;;;7710836;23;20047;-70
2022/05/16 15:54:46;;;;;;;11.48;2.53;;;42.80;19.60;;;;;;7710824;23;20016;-70
2022/05/16 15:57:49;;;;;;;5.88;2.60;;;43.00;19.40;;;;;;7710263;23;20024;-70
2022/05/16 16:00:50;;;;;;;7.20;2.63;;;43.00;19.40;;;;;;7659798;23;22040;-70
2022/05/16 16:10:32;;;;;;;7.32;2.42;;;42.60;19.40;;;;;;7710737;23;20019;-72
2022/05/16 16:13:33;;;;;;;8.32;2.50;;;42.80;19.50;;;;;;7646106;23;20369;-70
2022/05/16 16:16:34;;;;;;;5.70;2.22;;;43.00;19.40;;;;;;7710635;23;20085;-71
2022/05/16 16:19:42;;;;;;;6.95;2.20;;;42.90;19.30;;;;;;7684624;23;20297;-71
2022/05/16 16:22:43;;;;;;;8.65;2.13;;;42.50;19.30;;;;;;7710578;23;20008;-71
2022/05/16 16:25:45;;;;;;;5.28;2.20;;;42.20;19.50;;;;;;7684626;23;20020;-71
2022/05/16 16:28:46;;;;;;;5.50;2.22;;;42.00;19.80;;;;;;7685099;23;20031;-70
2022/05/16 16:31:47;;;;;;;3.70;2.50;;;41.70;19.90;;;;;;7710890;23;20062;-70
2022/05/16 16:34:48;;;;;;;4.63;2.17;;;41.10;20.20;;;;;;7685012;23;20138;-69
2022/05/16 16:37:49;;;;;;;8.35;2.30;;;40.20;20.90;;;;;;7684146;23;20276;-71
2022/05/16 16:40:53;;;;;;;6.57;2.10;;;39.30;21.60;;;;;;7712838;23;20031;-70
2022/05/16 16:43:54;;;;;;;8.35;2.75;;;38.60;22.60;;;;;;7713298;23;20013;-70
2022/05/16 16:46:56;;;;;;;5.40;2.00;;;38.20;22.50;;;;;;7687246;23;20021;-70
2022/05/16 16:49:57;;;;;;;6.60;2.20;;;37.70;22.90;;;;;;7686328;23;20292;-70
2022/05/16 17:00:00;;;;;;;6.47;2.42;;;35.50;24.60;;;;;;7560493;23;20106;-70
2022/05/16 17:03:05;;;;;;;6.18;2.60;;;34.90;25.20;;;;;;7560592;23;20085;-70